createdAt,value
2023-04-15T00:02:21.977Z,4.88
2023-04-15T00:04:48.751Z,4.70
2023-04-15T00:07:16.283Z,4.53
2023-04-15T00:09:43.024Z,4.23
2023-04-15T00:12:09.682Z,5.00
2023-04-15T00:14:36.930Z,5.00
2023-04-15T00:17:04.699Z,4.80
2023-04-15T00:19:32.472Z,4.43
2023-04-15T00:22:16.169Z,4.13
2023-04-15T00:24:55.673Z,4.25
2023-04-15T00:27:23.159Z,4.45
2023-04-15T00:29:59.773Z,4.15
2023-04-15T00:32:27.299Z,4.40
2023-04-15T00:35:22.572Z,4.27
2023-04-15T00:37:50.031Z,4.78
2023-04-15T00:40:18.789Z,4.53
2023-04-15T00:42:46.239Z,3.95
2023-04-15T00:45:19.980Z,4.35
2023-04-15T00:47:46.543Z,4.23
2023-04-15T00:50:21.374Z,4.38
2023-04-15T00:52:47.745Z,4.85
2023-04-15T00:55:15.805Z,4.40
2023-04-15T00:57:44.383Z,4.63
2023-04-15T01:00:12.139Z,4.27
2023-04-15T01:02:42.745Z,4.32
2023-04-15T01:05:27.100Z,4.28
2023-04-15T01:07:53.500Z,4.50
2023-04-15T01:10:19.985Z,4.55
2023-04-15T01:12:55.614Z,4.57
2023-04-15T01:15:24.156Z,4.75
2023-04-15T01:18:18.260Z,4.00
2023-04-15T01:20:58.181Z,3.88
2023-04-15T01:23:24.747Z,4.30
2023-04-15T01:25:53.461Z,4.80
2023-04-15T01:28:28.390Z,4.10
2023-04-15T01:31:14.239Z,3.80
2023-04-15T01:33:42.622Z,4.20
2023-04-15T01:36:40.174Z,4.63
2023-04-15T01:39:06.658Z,3.40
2023-04-15T01:41:33.127Z,4.05
2023-04-15T01:43:59.507Z,4.40
2023-04-15T01:46:38.355Z,4.00
2023-04-15T01:49:19.067Z,4.40
2023-04-15T01:51:52.859Z,4.10
2023-04-15T01:54:19.281Z,4.20
2023-04-15T01:56:52.097Z,4.13
2023-04-15T01:59:18.840Z,4.30
2023-04-15T02:01:45.399Z,4.00
2023-04-15T02:04:17.294Z,4.63
2023-04-15T02:06:44.840Z,4.00
2023-04-15T02:09:11.250Z,3.90
2023-04-15T02:11:48.934Z,4.28
2023-04-15T02:14:36.009Z,4.07
2023-04-15T02:17:08.334Z,4.30
2023-04-15T02:19:35.679Z,4.18
2023-04-15T02:22:02.187Z,3.72
2023-04-15T02:24:31.215Z,4.25
2023-04-15T02:26:57.703Z,4.22
2023-04-15T02:29:37.474Z,4.03
2023-04-15T02:32:07.507Z,4.13
2023-04-15T02:34:34.032Z,3.92
2023-04-15T02:37:56.170Z,3.72
2023-04-15T02:40:22.806Z,4.25
2023-04-15T02:42:50.303Z,4.30
2023-04-15T02:45:20.997Z,4.00
2023-04-15T02:47:47.553Z,4.15
2023-04-15T02:50:16.615Z,3.22
2023-04-15T02:52:53.321Z,4.10
2023-04-15T02:55:33.269Z,4.27
2023-04-15T02:58:00.850Z,3.88
2023-04-15T03:00:32.477Z,3.92
2023-04-15T03:03:06.526Z,3.92
2023-04-15T03:05:33.221Z,4.38
2023-04-15T03:08:01.356Z,4.33
2023-04-15T03:10:28.028Z,4.60
2023-04-15T03:12:54.411Z,3.88
2023-04-15T03:15:21.213Z,4.35
2023-04-15T03:17:49.514Z,4.28
2023-04-15T03:20:17.071Z,3.87
2023-04-15T03:22:43.669Z,3.92
2023-04-15T03:25:14.305Z,3.88
2023-04-15T03:27:41.784Z,3.45
2023-04-15T03:30:09.058Z,4.25
2023-04-15T03:32:35.713Z,4.00
2023-04-15T03:35:08.281Z,4.15
2023-04-15T03:37:34.724Z,4.18
2023-04-15T03:40:01.491Z,4.25
2023-04-15T03:42:31.872Z,4.30
2023-04-15T03:44:58.264Z,4.53
2023-04-15T03:47:24.739Z,4.53
2023-04-15T03:49:51.385Z,3.65
2023-04-15T03:52:23.900Z,4.05
2023-04-15T03:54:50.288Z,3.97
2023-04-15T03:57:17.805Z,4.13
2023-04-15T03:59:44.323Z,3.95
2023-04-15T04:02:17.325Z,4.43
2023-04-15T04:04:44.023Z,4.13
2023-04-15T04:07:16.690Z,3.83
2023-04-15T04:10:03.857Z,3.87
2023-04-15T04:12:35.478Z,3.47
2023-04-15T04:15:20.586Z,3.90
2023-04-15T04:18:11.783Z,4.30
2023-04-15T04:20:38.436Z,3.95
2023-04-15T04:23:04.976Z,4.43
2023-04-15T04:25:31.478Z,4.03
2023-04-15T04:27:58.035Z,4.00
2023-04-15T04:30:24.766Z,3.78
2023-04-15T04:32:51.778Z,4.35
2023-04-15T04:35:47.195Z,4.20
2023-04-15T04:38:13.660Z,4.15
2023-04-15T04:40:40.384Z,4.38
2023-04-15T04:43:16.129Z,4.90
2023-04-15T04:45:42.990Z,4.80
2023-04-15T04:48:10.693Z,4.47
2023-04-15T04:50:37.301Z,4.47
2023-04-15T04:53:03.884Z,4.18
2023-04-15T04:55:32.437Z,3.85
2023-04-15T04:58:09.983Z,4.32
2023-04-15T05:00:43.650Z,4.43
2023-04-15T05:03:16.344Z,4.82
2023-04-15T05:05:53.248Z,4.85
2023-04-15T05:08:19.623Z,4.45
2023-04-15T05:10:46.336Z,4.70
2023-04-15T05:13:27.135Z,4.33
2023-04-15T05:15:53.617Z,4.60
2023-04-15T05:18:21.220Z,4.45
2023-04-15T05:20:49.966Z,4.32
2023-04-15T05:23:17.800Z,4.28
2023-04-15T05:25:44.352Z,5.07
2023-04-15T05:28:23.946Z,4.80
2023-04-15T05:30:50.526Z,4.85
2023-04-15T05:33:42.536Z,3.83
2023-04-15T05:36:09.155Z,4.47
2023-04-15T05:38:41.003Z,4.60
2023-04-15T05:41:10.547Z,4.63
2023-04-15T05:43:37.011Z,4.43
2023-04-15T05:46:12.671Z,4.90
2023-04-15T05:48:43.410Z,4.90
2023-04-15T05:51:11.295Z,4.63
2023-04-15T05:53:37.787Z,4.45
2023-04-15T05:56:04.645Z,4.97
2023-04-15T05:58:31.084Z,5.05
2023-04-15T06:00:57.649Z,5.22
2023-04-15T06:03:24.303Z,4.63
2023-04-15T06:05:50.988Z,4.35
2023-04-15T06:08:29.855Z,5.10
2023-04-15T06:10:56.523Z,4.65
2023-04-15T06:13:22.978Z,5.05
2023-04-15T06:15:49.603Z,4.70
2023-04-15T06:18:16.110Z,4.93
2023-04-15T06:20:54.882Z,4.82
2023-04-15T06:23:21.451Z,5.05
2023-04-15T06:25:48.229Z,5.10
2023-04-15T06:28:14.669Z,5.17
2023-04-15T06:30:41.212Z,5.20
2023-04-15T06:33:07.671Z,5.47
2023-04-15T06:35:34.350Z,5.85
2023-04-15T06:38:00.797Z,5.25
2023-04-15T06:40:27.872Z,5.03
2023-04-15T06:42:55.704Z,5.53
2023-04-15T06:45:22.637Z,4.70
2023-04-15T06:47:49.094Z,5.65
2023-04-15T06:50:17.717Z,5.22
2023-04-15T06:52:44.214Z,6.07
2023-04-15T06:55:12.750Z,5.15
2023-04-15T06:58:01.171Z,5.05
2023-04-15T07:00:28.634Z,4.82
2023-04-15T07:02:55.812Z,5.75
2023-04-15T07:05:32.513Z,5.47
2023-04-15T07:07:59.018Z,5.60
2023-04-15T07:10:25.794Z,5.38
2023-04-15T07:12:52.629Z,5.38
2023-04-15T07:15:21.213Z,5.43
2023-04-15T07:17:47.803Z,5.07
2023-04-15T07:20:14.655Z,5.45
2023-04-15T07:22:41.234Z,5.40
2023-04-15T07:25:09.074Z,5.60
2023-04-15T07:27:35.633Z,5.28
2023-04-15T07:30:02.554Z,5.47
2023-04-15T07:32:29.268Z,5.35
2023-04-15T07:34:55.792Z,5.40
2023-04-15T07:37:24.468Z,5.53
2023-04-15T07:39:55.295Z,5.32
2023-04-15T07:42:35.109Z,5.10
2023-04-15T07:45:01.669Z,4.35
2023-04-15T07:47:28.257Z,3.80
2023-04-15T07:49:54.664Z,3.97
2023-04-15T07:52:21.088Z,3.95
2023-04-15T07:54:50.490Z,3.77
2023-04-15T07:57:17.607Z,3.75
2023-04-15T07:59:45.067Z,4.00
2023-04-15T08:02:12.069Z,2.92
2023-04-15T08:04:38.814Z,3.15
2023-04-15T08:07:06.178Z,3.80
2023-04-15T08:09:36.090Z,3.55
2023-04-15T08:12:02.673Z,4.10
2023-04-15T08:14:29.437Z,3.22
2023-04-15T08:16:55.905Z,3.33
2023-04-15T08:19:22.989Z,3.33
2023-04-15T08:21:49.742Z,3.67
2023-04-15T08:24:16.206Z,3.45
2023-04-15T08:26:42.762Z,3.17
2023-04-15T08:29:09.340Z,2.70
2023-04-15T08:31:35.928Z,2.90
2023-04-15T08:34:02.471Z,2.95
2023-04-15T08:36:37.301Z,3.05
2023-04-15T08:39:04.945Z,2.50
2023-04-15T08:41:40.671Z,2.53
2023-04-15T08:44:07.398Z,2.45
2023-04-15T08:46:34.870Z,2.78
2023-04-15T08:49:05.109Z,2.42
2023-04-15T08:51:33.815Z,2.33
2023-04-15T08:54:01.572Z,2.47
2023-04-15T08:56:28.173Z,2.55
2023-04-15T08:58:55.286Z,3.10
2023-04-15T09:01:22.748Z,2.97
2023-04-15T09:03:50.745Z,2.60
2023-04-15T09:06:25.619Z,2.70
2023-04-15T09:08:52.986Z,2.90
2023-04-15T09:11:20.385Z,2.80
2023-04-15T09:13:46.858Z,3.22
2023-04-15T09:16:19.566Z,2.88
2023-04-15T09:18:46.121Z,2.97
2023-04-15T09:21:15.471Z,3.03
2023-04-15T09:23:55.952Z,2.83
2023-04-15T09:26:35.734Z,2.45
2023-04-15T09:29:07.459Z,2.78
2023-04-15T09:31:33.912Z,2.53
2023-04-15T09:34:00.614Z,2.60
2023-04-15T09:36:29.793Z,2.58
2023-04-15T09:39:00.536Z,2.80
2023-04-15T09:41:28.586Z,2.63
2023-04-15T09:43:55.139Z,2.07
2023-04-15T09:46:41.180Z,2.33
2023-04-15T09:49:08.956Z,2.72
2023-04-15T09:51:35.775Z,2.33
2023-04-15T09:54:02.516Z,2.80
2023-04-15T09:56:37.801Z,2.97
2023-04-15T09:59:09.451Z,2.75
2023-04-15T10:01:41.083Z,2.22
2023-04-15T10:04:09.088Z,2.00
2023-04-15T10:06:36.362Z,2.10
2023-04-15T10:09:03.261Z,2.30
2023-04-15T10:11:35.096Z,2.72
2023-04-15T10:14:02.229Z,2.25
2023-04-15T10:16:29.059Z,2.03
2023-04-15T10:18:57.298Z,2.10
2023-04-15T10:21:24.660Z,1.50
2023-04-15T10:23:51.445Z,1.88
2023-04-15T10:26:17.963Z,1.75
2023-04-15T10:28:47.328Z,1.70
2023-04-15T10:31:20.088Z,2.58
2023-04-15T10:34:06.694Z,2.10
2023-04-15T10:36:34.313Z,1.98
2023-04-15T10:39:01.420Z,2.40
2023-04-15T10:41:31.275Z,2.33
2023-04-15T10:44:05.027Z,2.50
2023-04-15T10:46:40.102Z,2.23
2023-04-15T10:49:14.484Z,2.38
2023-04-15T10:51:52.849Z,2.30
2023-04-15T10:54:29.346Z,2.10
2023-04-15T10:57:01.949Z,2.20
2023-04-15T10:59:32.572Z,1.73
2023-04-15T11:02:04.397Z,1.73
2023-04-15T11:04:54.193Z,1.80
2023-04-15T11:08:02.538Z,1.65
2023-04-15T11:10:28.898Z,1.92
2023-04-15T11:12:59.454Z,1.67
2023-04-15T11:15:34.934Z,1.80
2023-04-15T11:18:19.759Z,2.08
2023-04-15T11:20:55.504Z,1.60
2023-04-15T11:23:39.991Z,1.70
2023-04-15T11:26:12.198Z,1.40
2023-04-15T11:28:41.424Z,1.38
2023-04-15T11:31:16.416Z,1.38
2023-04-15T11:33:59.878Z,1.63
2023-04-15T11:36:27.821Z,1.55
2023-04-15T11:38:54.561Z,1.37
2023-04-15T11:41:22.502Z,1.33
2023-04-15T11:43:49.751Z,1.40
2023-04-15T11:46:16.694Z,1.70
2023-04-15T11:48:45.279Z,1.65
2023-04-15T11:51:12.816Z,1.13
2023-04-15T11:53:41.541Z,1.55
2023-04-15T11:56:10.123Z,1.70
2023-04-15T11:58:44.798Z,1.50
2023-04-15T12:01:11.860Z,1.90
2023-04-15T12:03:57.296Z,1.63
2023-04-15T12:06:25.624Z,1.63
2023-04-15T12:08:59.282Z,2.00
2023-04-15T12:11:49.400Z,1.30
2023-04-15T12:14:15.726Z,1.60
2023-04-15T12:16:49.501Z,1.20
2023-04-15T12:19:27.560Z,1.30
2023-04-15T12:22:03.279Z,1.40
2023-04-15T12:24:34.396Z,1.17
2023-04-15T12:27:06.151Z,1.27
2023-04-15T12:29:34.532Z,1.07
2023-04-15T12:32:15.155Z,0.95
2023-04-15T12:34:45.151Z,0.93
2023-04-15T12:37:13.733Z,1.05
2023-04-15T12:39:42.802Z,1.58
2023-04-15T12:42:10.831Z,0.83
2023-04-15T12:44:39.485Z,0.98
2023-04-15T12:47:07.793Z,1.30
2023-04-15T12:49:36.271Z,0.95
2023-04-15T12:52:13.570Z,1.50
2023-04-15T12:54:40.023Z,1.23
2023-04-15T12:57:10.627Z,1.55
2023-04-15T12:59:37.478Z,1.70
2023-04-15T13:02:11.013Z,1.30
2023-04-15T13:04:37.544Z,1.85
2023-04-15T13:07:04.154Z,1.33
2023-04-15T13:09:32.414Z,0.88
2023-04-15T13:11:59.218Z,1.10
2023-04-15T13:14:25.681Z,1.20
2023-04-15T13:17:04.134Z,1.30
2023-04-15T13:19:32.098Z,1.07
2023-04-15T13:22:02.566Z,1.60
2023-04-15T13:24:28.942Z,1.42
2023-04-15T13:26:55.918Z,1.08
2023-04-15T13:29:25.734Z,1.10
2023-04-15T13:31:56.752Z,1.00
2023-04-15T13:34:23.254Z,1.00
2023-04-15T13:36:50.894Z,1.20
2023-04-15T13:39:17.274Z,1.15
2023-04-15T13:41:43.789Z,1.20
2023-04-15T13:44:12.649Z,1.30
2023-04-15T13:46:42.510Z,1.17
2023-04-15T13:49:15.357Z,1.20
2023-04-15T13:51:42.355Z,0.70
2023-04-15T13:54:08.854Z,1.20
2023-04-15T13:56:46.443Z,1.20
2023-04-15T13:59:26.106Z,1.08
2023-04-15T14:01:58.942Z,1.10
2023-04-15T14:04:25.419Z,0.60
2023-04-15T14:07:05.324Z,0.77
2023-04-15T14:09:31.899Z,0.80
2023-04-15T14:11:59.964Z,0.73
2023-04-15T14:14:30.557Z,0.65
2023-04-15T14:16:57.140Z,0.65
2023-04-15T14:19:24.290Z,0.93
2023-04-15T14:21:50.944Z,0.83
2023-04-15T14:24:25.582Z,0.80
2023-04-15T14:26:54.092Z,1.27
2023-04-15T14:29:20.636Z,0.98
2023-04-15T14:32:11.197Z,1.25
2023-04-15T14:34:35.284Z,1.50
2023-04-15T14:37:02.937Z,1.15
2023-04-15T14:39:30.845Z,1.38
2023-04-15T14:42:23.289Z,1.27
2023-04-15T14:44:50.590Z,1.50
2023-04-15T14:47:21.200Z,0.87
2023-04-15T14:50:04.443Z,0.60
2023-04-15T14:52:55.941Z,0.95
2023-04-15T14:55:37.788Z,0.77
2023-04-15T14:58:21.647Z,1.10
2023-04-15T15:00:49.248Z,0.93
2023-04-15T15:03:18.952Z,1.08
2023-04-15T15:05:47.030Z,0.77
2023-04-15T15:08:20.983Z,1.13
2023-04-15T15:10:49.049Z,1.50
2023-04-15T15:13:17.309Z,0.80
2023-04-15T15:15:44.072Z,0.80
2023-04-15T15:18:10.839Z,0.88
2023-04-15T15:20:37.366Z,0.75
2023-04-15T15:23:03.863Z,0.70
2023-04-15T15:25:30.367Z,0.70
2023-04-15T15:27:57.746Z,0.70
2023-04-15T15:30:24.263Z,1.00
2023-04-15T15:32:50.871Z,1.10
2023-04-15T15:35:17.428Z,1.00
2023-04-15T15:37:45.894Z,0.57
2023-04-15T15:40:12.822Z,0.98
2023-04-15T15:42:39.233Z,1.27
2023-04-15T15:45:07.978Z,0.70
2023-04-15T15:47:38.534Z,1.27
2023-04-15T15:50:06.263Z,1.13
2023-04-15T15:52:34.046Z,1.20
2023-04-15T15:55:00.883Z,1.63
2023-04-15T15:57:27.415Z,1.42
2023-04-15T16:00:04.778Z,1.40
2023-04-15T16:03:04.187Z,1.00
2023-04-15T16:05:23.907Z,1.20
2023-04-15T16:07:53.287Z,1.10
2023-04-15T16:10:36.061Z,0.90
2023-04-15T16:13:02.879Z,0.88
2023-04-15T16:15:30.495Z,0.80
2023-04-15T16:17:56.978Z,1.13
2023-04-15T16:20:33.669Z,1.58
2023-04-15T16:23:13.399Z,1.13
2023-04-15T16:26:01.784Z,0.85
2023-04-15T16:28:28.252Z,1.40
2023-04-15T16:30:56.200Z,0.90
2023-04-15T16:33:22.620Z,1.15
2023-04-15T16:35:49.065Z,0.80
2023-04-15T16:38:40.427Z,1.50
2023-04-15T16:41:08.021Z,1.00
2023-04-15T16:43:34.418Z,1.25
2023-04-15T16:46:00.887Z,0.90
2023-04-15T16:48:27.358Z,0.60
2023-04-15T16:50:53.742Z,1.45
2023-04-15T16:53:50.420Z,1.50
2023-04-15T16:56:16.962Z,0.70
2023-04-15T16:58:43.494Z,1.30
2023-04-15T17:01:10.146Z,1.05
2023-04-15T17:03:36.986Z,1.00
2023-04-15T17:06:20.866Z,0.73
2023-04-15T17:08:47.306Z,0.77
2023-04-15T17:11:17.981Z,0.98
2023-04-15T17:13:44.341Z,0.88
2023-04-15T17:16:10.927Z,1.00
2023-04-15T17:18:38.399Z,0.70
2023-04-15T17:21:05.195Z,0.80
2023-04-15T17:23:32.000Z,0.82
2023-04-15T17:25:58.390Z,0.75
2023-04-15T17:28:24.778Z,0.80
2023-04-15T17:30:51.281Z,1.00
2023-04-15T17:34:00.169Z,0.70
2023-04-15T17:36:04.627Z,1.30
2023-04-15T17:38:31.230Z,0.60
2023-04-15T17:40:57.627Z,0.85
2023-04-15T17:43:23.999Z,0.80
2023-04-15T17:45:51.078Z,1.00
2023-04-15T17:48:17.485Z,1.30
2023-04-15T17:50:44.117Z,0.98
2023-04-15T17:53:10.527Z,0.80
2023-04-15T17:55:36.985Z,0.90
2023-04-15T17:58:03.463Z,0.82
2023-04-15T18:00:29.814Z,0.82
2023-04-15T18:02:56.398Z,0.68
2023-04-15T18:05:23.089Z,0.90
2023-04-15T18:07:52.111Z,1.07
2023-04-15T18:10:18.737Z,0.80
2023-04-15T18:12:45.247Z,1.00
2023-04-15T18:15:11.833Z,0.80
2023-04-15T18:17:38.326Z,0.60
2023-04-15T18:20:05.137Z,1.00
2023-04-15T18:22:31.528Z,1.10
2023-04-15T18:25:03.903Z,0.90
2023-04-15T18:27:32.204Z,0.60
2023-04-15T18:29:58.745Z,0.65
2023-04-15T18:32:25.480Z,0.60
2023-04-15T18:34:51.857Z,0.88
2023-04-15T18:37:18.245Z,0.93
2023-04-15T18:39:44.664Z,0.73
2023-04-15T18:42:12.977Z,0.90
2023-04-15T18:44:39.332Z,1.07
2023-04-15T18:47:05.852Z,1.02
2023-04-15T18:49:33.252Z,1.08
2023-04-15T18:51:59.714Z,1.00
2023-04-15T18:54:26.087Z,1.30
2023-04-15T18:56:52.507Z,0.90
2023-04-15T18:59:29.573Z,0.70
2023-04-15T19:01:57.705Z,0.82
2023-04-15T19:04:24.253Z,0.88
2023-04-15T19:06:51.140Z,0.93
2023-04-15T19:09:17.602Z,0.60
2023-04-15T19:11:43.998Z,0.77
2023-04-15T19:14:11.270Z,1.30
2023-04-15T19:16:37.680Z,0.70
2023-04-15T19:19:04.479Z,1.00
2023-04-15T19:21:31.887Z,0.90
2023-04-15T19:24:09.850Z,0.73
2023-04-15T19:26:36.792Z,0.95
2023-04-15T19:29:03.406Z,0.88
2023-04-15T19:31:30.081Z,0.90
2023-04-15T19:33:56.786Z,0.90
2023-04-15T19:36:23.296Z,0.80
2023-04-15T19:39:09.279Z,0.90
2023-04-15T19:41:36.697Z,0.80
2023-04-15T19:44:04.452Z,0.70
2023-04-15T19:46:31.050Z,0.67
2023-04-15T19:48:57.653Z,0.88
2023-04-15T19:51:24.958Z,1.00
2023-04-15T19:53:53.861Z,0.93
2023-04-15T19:56:20.755Z,1.08
2023-04-15T19:58:52.594Z,0.77
2023-04-15T20:01:20.254Z,0.73
2023-04-15T20:03:47.237Z,0.80
2023-04-15T20:06:16.672Z,1.15
2023-04-15T20:08:43.076Z,1.25
2023-04-15T20:11:10.242Z,1.07
2023-04-15T20:13:36.759Z,1.05
2023-04-15T20:16:03.368Z,1.13
2023-04-15T20:18:29.851Z,1.10
2023-04-15T20:20:56.227Z,1.02
2023-04-15T20:23:22.672Z,2.07
2023-04-15T20:25:49.132Z,1.17
2023-04-15T20:28:17.929Z,0.75
2023-04-15T20:30:44.574Z,1.23
2023-04-15T20:33:11.132Z,0.82
2023-04-15T20:35:37.540Z,0.47
2023-04-15T20:38:04.542Z,0.95
2023-04-15T20:40:33.631Z,1.00
2023-04-15T20:43:00.530Z,0.85
2023-04-15T20:45:26.933Z,1.08
2023-04-15T20:47:55.163Z,1.17
2023-04-15T20:50:21.676Z,0.90
2023-04-15T20:52:48.048Z,1.10
2023-04-15T20:55:14.507Z,1.05
2023-04-15T20:57:50.121Z,1.13
2023-04-15T21:00:16.727Z,1.10
2023-04-15T21:02:43.195Z,1.00
2023-04-15T21:05:09.801Z,1.40
2023-04-15T21:07:36.222Z,1.02
2023-04-15T21:10:15.922Z,1.30
2023-04-15T21:12:42.541Z,0.70
2023-04-15T21:15:16.897Z,1.10
2023-04-15T21:17:44.340Z,1.20
2023-04-15T21:20:11.427Z,1.10
2023-04-15T21:22:37.814Z,1.40
2023-04-15T21:25:04.549Z,1.10
2023-04-15T21:27:30.953Z,0.80
2023-04-15T21:29:57.393Z,0.93
2023-04-15T21:32:23.808Z,0.90
2023-04-15T21:34:50.232Z,1.20
2023-04-15T21:37:16.602Z,0.90
2023-04-15T21:39:42.970Z,0.75
2023-04-15T21:42:09.410Z,1.30
2023-04-15T21:44:35.789Z,1.55
2023-04-15T21:47:02.420Z,1.00
2023-04-15T21:49:29.150Z,1.50
2023-04-15T21:51:59.240Z,1.50
2023-04-15T21:54:25.707Z,1.15
2023-04-15T21:56:52.325Z,1.00
2023-04-15T21:59:18.680Z,0.90
2023-04-15T22:01:45.519Z,1.00
2023-04-15T22:04:19.259Z,0.93
2023-04-15T22:06:46.398Z,1.00
2023-04-15T22:09:14.335Z,1.33
2023-04-15T22:11:41.327Z,0.95
2023-04-15T22:14:07.757Z,0.80
2023-04-15T22:16:34.142Z,1.02
2023-04-15T22:19:00.562Z,1.30
2023-04-15T22:21:27.036Z,0.90
2023-04-15T22:24:33.237Z,1.10
2023-04-15T22:26:39.971Z,0.90
2023-04-15T22:29:06.677Z,0.80
2023-04-15T22:31:33.337Z,1.02
2023-04-15T22:33:59.723Z,0.85
2023-04-15T22:36:26.489Z,1.63
2023-04-15T22:38:52.955Z,1.00
2023-04-15T22:41:19.313Z,1.10
2023-04-15T22:43:46.434Z,1.40
2023-04-15T22:46:13.677Z,1.23
2023-04-15T22:48:40.453Z,1.48
2023-04-15T22:51:06.838Z,1.00
2023-04-15T22:53:33.331Z,1.05
2023-04-15T22:55:59.707Z,1.27
2023-04-15T22:58:26.064Z,1.50
2023-04-15T23:00:52.520Z,1.48
2023-04-15T23:03:19.086Z,1.20
2023-04-15T23:05:46.189Z,1.00
2023-04-15T23:08:12.654Z,1.23
2023-04-15T23:10:40.129Z,1.23
2023-04-15T23:13:06.582Z,1.80
2023-04-15T23:15:33.071Z,1.00
2023-04-15T23:18:00.508Z,1.15
2023-04-15T23:20:26.916Z,1.65
2023-04-15T23:22:53.319Z,1.17
2023-04-15T23:25:22.184Z,1.75
2023-04-15T23:27:48.580Z,1.07
2023-04-15T23:30:15.076Z,1.40
2023-04-15T23:32:41.530Z,1.35
2023-04-15T23:35:08.598Z,1.48
2023-04-15T23:37:35.035Z,1.58
2023-04-15T23:40:01.412Z,1.40
2023-04-15T23:42:27.812Z,1.20
2023-04-15T23:44:54.311Z,1.00
2023-04-15T23:47:21.495Z,1.58
2023-04-15T23:49:47.878Z,1.27
2023-04-15T23:52:14.552Z,1.77
2023-04-15T23:54:41.001Z,1.20
2023-04-15T23:57:07.459Z,1.80
2023-04-15T23:59:33.888Z,1.20
